AAL1130 SKBO-KMIA
Flight info
| Callsign | AAL1130 |
|---|---|
| Flight time | N/A |
| Altitude | 35000 |
| Route | TOBKI4R VASIL UL423 PULOX DCT ARORO UN653 PML/N0471F350 UM795 COLBY/N0467F360 DCT EPSIM UM779 ZEUSS VIICE2 |
| Aircraft | B38M/M-SDE1FGHILORVWXY/HB1 |
Departure
| Time | 2026-05-06 09:28 |
|---|---|
| Airport | El Dorado International Airport (SKBO) |
Arrival
| Time | N/A |
|---|---|
| Airport | Miami International Airport (KMIA) |
| Time | Latitude | Longitude | Altitude | Speed | Heading |
|---|---|---|---|---|---|
| 2026-05-06 08:41 | 4.69989 | -74.14336 | 8364 ft | 0 kts | 49° |
| 2026-05-06 09:13 | 4.69979 | -74.14347 | 8364 ft | 3 kts | 43° |
| 2026-05-06 09:13 | 4.69963 | -74.14359 | 8364 ft | 3 kts | 27° |
| 2026-05-06 09:13 | 4.69945 | -74.14365 | 8364 ft | 3 kts | 356° |
| 2026-05-06 09:13 | 4.69932 | -74.14360 | 8364 ft | 2 kts | 307° |
| 2026-05-06 09:14 | 4.69928 | -74.14355 | 8364 ft | 0 kts | 304° |
| 2026-05-06 09:14 | 4.69928 | -74.14354 | 8364 ft | 0 kts | 304° |
| 2026-05-06 09:18 | 4.69932 | -74.14360 | 8364 ft | 4 kts | 307° |
| 2026-05-06 09:18 | 4.69961 | -74.14400 | 8364 ft | 10 kts | 306° |
| 2026-05-06 09:18 | 4.70018 | -74.14478 | 8364 ft | 17 kts | 305° |
| 2026-05-06 09:19 | 4.70060 | -74.14581 | 8364 ft | 14 kts | 223° |
| 2026-05-06 09:19 | 4.69981 | -74.14634 | 8364 ft | 13 kts | 219° |
| 2026-05-06 09:19 | 4.69911 | -74.14692 | 8364 ft | 13 kts | 217° |
| 2026-05-06 09:19 | 4.69842 | -74.14745 | 8364 ft | 12 kts | 219° |
| 2026-05-06 09:20 | 4.69773 | -74.14794 | 8364 ft | 12 kts | 217° |
| 2026-05-06 09:20 | 4.69777 | -74.14871 | 8364 ft | 13 kts | 302° |
| 2026-05-06 09:20 | 4.69834 | -74.14957 | 8364 ft | 17 kts | 310° |
| 2026-05-06 09:20 | 4.69919 | -74.15064 | 8364 ft | 22 kts | 300° |
| 2026-05-06 09:21 | 4.70021 | -74.15199 | 8364 ft | 27 kts | 308° |
| 2026-05-06 09:21 | 4.70135 | -74.15348 | 8364 ft | 26 kts | 308° |
| 2026-05-06 09:21 | 4.70235 | -74.15479 | 8363 ft | 22 kts | 304° |
| 2026-05-06 09:21 | 4.70323 | -74.15602 | 8363 ft | 21 kts | 306° |
| 2026-05-06 09:22 | 4.70411 | -74.15714 | 8363 ft | 20 kts | 308° |
| 2026-05-06 09:22 | 4.70495 | -74.15825 | 8363 ft | 19 kts | 307° |
| 2026-05-06 09:22 | 4.70574 | -74.15929 | 8363 ft | 18 kts | 307° |
| 2026-05-06 09:22 | 4.70648 | -74.16026 | 8364 ft | 17 kts | 306° |
| 2026-05-06 09:23 | 4.70718 | -74.16118 | 8363 ft | 16 kts | 302° |
| 2026-05-06 09:23 | 4.70783 | -74.16207 | 8363 ft | 16 kts | 307° |
| 2026-05-06 09:23 | 4.70849 | -74.16294 | 8363 ft | 16 kts | 302° |
| 2026-05-06 09:23 | 4.70922 | -74.16390 | 8363 ft | 19 kts | 307° |
| 2026-05-06 09:24 | 4.71016 | -74.16511 | 8363 ft | 25 kts | 307° |
| 2026-05-06 09:24 | 4.71126 | -74.16656 | 8363 ft | 26 kts | 306° |
| 2026-05-06 09:24 | 4.71194 | -74.16769 | 8363 ft | 16 kts | 264° |
| 2026-05-06 09:24 | 4.71144 | -74.16836 | 8362 ft | 0 kts | 218° |
| 2026-05-06 09:25 | 4.71143 | -74.16837 | 8362 ft | 0 kts | 219° |
| 2026-05-06 09:25 | 4.71138 | -74.16841 | 8362 ft | 3 kts | 217° |
| 2026-05-06 09:25 | 4.71090 | -74.16879 | 8361 ft | 15 kts | 207° |
| 2026-05-06 09:25 | 4.71002 | -74.16851 | 8362 ft | 12 kts | 128° |
| 2026-05-06 09:26 | 4.70986 | -74.16831 | 8362 ft | 0 kts | 124° |
| 2026-05-06 09:26 | 4.70971 | -74.16810 | 8362 ft | 19 kts | 127° |
| 2026-05-06 09:26 | 4.70776 | -74.16555 | 8364 ft | 72 kts | 128° |
| 2026-05-06 09:27 | 4.70378 | -74.16031 | 8363 ft | 116 kts | 127° |
| 2026-05-06 09:27 | 4.69816 | -74.15285 | 8365 ft | 151 kts | 127° |
| 2026-05-06 09:27 | 4.69132 | -74.14369 | 8371 ft | 174 kts | 126° |
| 2026-05-06 09:27 | 4.68505 | -74.13534 | 8533 ft | 179 kts | 127° |
| 2026-05-06 09:28 | 4.67634 | -74.12647 | 9015 ft | 176 kts | 153° |
| 2026-05-06 09:28 | 4.66405 | -74.12348 | 9290 ft | 195 kts | 181° |
| 2026-05-06 09:28 | 4.65073 | -74.12640 | 9667 ft | 203 kts | 203° |
| 2026-05-06 09:28 | 4.63853 | -74.13533 | 9623 ft | 240 kts | 231° |
| 2026-05-06 09:29 | 4.63053 | -74.15115 | 9561 ft | 264 kts | 252° |
| 2026-05-06 09:29 | 4.62583 | -74.16828 | 9614 ft | 248 kts | 256° |
| 2026-05-06 09:29 | 4.62223 | -74.18513 | 9581 ft | 253 kts | 257° |
| 2026-05-06 09:29 | 4.61769 | -74.20254 | 9851 ft | 265 kts | 254° |
| 2026-05-06 09:30 | 4.61266 | -74.22076 | 10245 ft | 278 kts | 254° |
| 2026-05-06 09:30 | 4.60832 | -74.24020 | 10462 ft | 291 kts | 261° |
| 2026-05-06 09:30 | 4.60494 | -74.26047 | 10878 ft | 301 kts | 258° |
| 2026-05-06 09:30 | 4.60223 | -74.28156 | 11054 ft | 320 kts | 267° |
| 2026-05-06 09:31 | 4.60135 | -74.30481 | 11186 ft | 339 kts | 265° |
| 2026-05-06 09:31 | 4.60011 | -74.32912 | 11247 ft | 358 kts | 266° |
| 2026-05-06 09:31 | 4.59867 | -74.35453 | 11388 ft | 372 kts | 265° |
| 2026-05-06 09:31 | 4.59733 | -74.38016 | 11825 ft | 373 kts | 270° |
| 2026-05-06 09:32 | 4.60175 | -74.40565 | 12345 ft | 376 kts | 290° |
| 2026-05-06 09:32 | 4.61441 | -74.42862 | 12795 ft | 379 kts | 308° |
| 2026-05-06 09:32 | 4.63050 | -74.44977 | 13314 ft | 384 kts | 308° |
| 2026-05-06 09:32 | 4.64686 | -74.47104 | 13842 ft | 388 kts | 309° |
| 2026-05-06 09:33 | 4.66353 | -74.49248 | 14318 ft | 391 kts | 309° |
| 2026-05-06 09:33 | 4.68040 | -74.51404 | 14794 ft | 394 kts | 309° |
| 2026-05-06 09:33 | 4.69736 | -74.53567 | 15330 ft | 397 kts | 309° |
| 2026-05-06 09:33 | 4.71451 | -74.55752 | 15847 ft | 399 kts | 309° |
| 2026-05-06 09:34 | 4.73174 | -74.57949 | 16333 ft | 402 kts | 309° |
| 2026-05-06 09:34 | 4.74996 | -74.60050 | 16801 ft | 403 kts | 321° |
| 2026-05-06 09:34 | 4.77219 | -74.61778 | 17259 ft | 404 kts | 324° |
| 2026-05-06 09:34 | 4.79471 | -74.63485 | 17712 ft | 407 kts | 325° |
| 2026-05-06 09:35 | 4.81716 | -74.65168 | 18168 ft | 410 kts | 326° |
| 2026-05-06 09:35 | 4.84006 | -74.66884 | 18550 ft | 412 kts | 324° |
| 2026-05-06 09:35 | 4.86272 | -74.68656 | 18962 ft | 414 kts | 324° |
| 2026-05-06 09:35 | 4.88546 | -74.70432 | 19348 ft | 416 kts | 324° |
| 2026-05-06 09:36 | 4.90836 | -74.72216 | 19751 ft | 417 kts | 324° |
| 2026-05-06 09:36 | 4.93071 | -74.74077 | 20097 ft | 421 kts | 315° |
| 2026-05-06 09:36 | 4.94784 | -74.76421 | 20492 ft | 424 kts | 300° |
| 2026-05-06 09:36 | 4.96153 | -74.79055 | 20843 ft | 427 kts | 298° |
| 2026-05-06 09:37 | 4.97501 | -74.81724 | 21199 ft | 429 kts | 298° |
| 2026-05-06 09:37 | 4.98833 | -74.84407 | 21562 ft | 431 kts | 297° |
| 2026-05-06 09:37 | 5.00160 | -74.87110 | 21913 ft | 433 kts | 297° |
| 2026-05-06 09:37 | 5.01488 | -74.89831 | 22263 ft | 435 kts | 297° |
| 2026-05-06 09:38 | 5.02815 | -74.92557 | 22618 ft | 437 kts | 297° |
| 2026-05-06 09:38 | 5.04152 | -74.95305 | 22965 ft | 439 kts | 297° |
| 2026-05-06 09:38 | 5.05466 | -74.98003 | 23313 ft | 440 kts | 297° |
| 2026-05-06 09:38 | 5.06764 | -75.00672 | 23635 ft | 443 kts | 297° |
| 2026-05-06 09:39 | 5.08116 | -75.03451 | 23924 ft | 444 kts | 297° |
| 2026-05-06 09:39 | 5.09474 | -75.06243 | 24212 ft | 446 kts | 297° |
| 2026-05-06 09:39 | 5.10821 | -75.09013 | 24526 ft | 449 kts | 297° |
| 2026-05-06 09:39 | 5.12194 | -75.11835 | 24810 ft | 450 kts | 297° |
| 2026-05-06 09:40 | 5.13569 | -75.14663 | 25114 ft | 452 kts | 297° |
| 2026-05-06 09:40 | 5.14962 | -75.17496 | 25424 ft | 453 kts | 300° |
| 2026-05-06 09:40 | 5.18870 | -75.22430 | 25991 ft | 455 kts | 312° |
| 2026-05-06 09:41 | 5.20953 | -75.24827 | 26255 ft | 457 kts | 312° |
| 2026-05-06 09:41 | 5.23054 | -75.27220 | 26539 ft | 459 kts | 313° |
| 2026-05-06 09:41 | 5.25146 | -75.29591 | 26793 ft | 461 kts | 313° |
| 2026-05-06 09:41 | 5.27280 | -75.32005 | 27054 ft | 462 kts | 313° |
| 2026-05-06 09:42 | 5.29415 | -75.34421 | 27310 ft | 464 kts | 313° |
| 2026-05-06 09:42 | 5.31565 | -75.36853 | 27534 ft | 466 kts | 313° |
| 2026-05-06 09:42 | 5.33712 | -75.39282 | 27780 ft | 468 kts | 313° |
| 2026-05-06 09:42 | 5.35876 | -75.41730 | 28008 ft | 469 kts | 312° |
| 2026-05-06 09:43 | 5.38045 | -75.44184 | 28253 ft | 470 kts | 312° |
| 2026-05-06 09:43 | 5.40216 | -75.46640 | 28554 ft | 471 kts | 312° |
| 2026-05-06 09:43 | 5.42395 | -75.49106 | 28772 ft | 473 kts | 312° |
| 2026-05-06 09:43 | 5.44581 | -75.51582 | 29010 ft | 475 kts | 312° |
| 2026-05-06 09:44 | 5.46743 | -75.54028 | 29235 ft | 477 kts | 312° |
| 2026-05-06 09:44 | 5.48941 | -75.56517 | 29446 ft | 478 kts | 312° |
| 2026-05-06 09:44 | 5.51154 | -75.59023 | 29681 ft | 480 kts | 312° |
| 2026-05-06 09:44 | 5.53371 | -75.61534 | 29903 ft | 482 kts | 312° |
| 2026-05-06 09:45 | 5.55595 | -75.64053 | 30136 ft | 482 kts | 313° |
| 2026-05-06 09:45 | 5.57781 | -75.66528 | 30303 ft | 484 kts | 312° |
| 2026-05-06 09:45 | 5.60060 | -75.69111 | 30481 ft | 486 kts | 312° |
| 2026-05-06 09:45 | 5.62302 | -75.71651 | 30705 ft | 486 kts | 312° |
| 2026-05-06 09:46 | 5.64510 | -75.74153 | 30960 ft | 486 kts | 312° |
| 2026-05-06 09:46 | 5.66777 | -75.76722 | 31180 ft | 486 kts | 312° |
| 2026-05-06 09:46 | 5.69015 | -75.79259 | 31419 ft | 486 kts | 312° |
| 2026-05-06 09:46 | 5.71277 | -75.81717 | 31694 ft | 484 kts | 319° |
| 2026-05-06 09:47 | 5.73916 | -75.83791 | 32003 ft | 482 kts | 323° |
| 2026-05-06 09:47 | 5.76567 | -75.85857 | 32229 ft | 482 kts | 323° |
| 2026-05-06 09:47 | 5.79217 | -75.87920 | 32493 ft | 482 kts | 323° |
| 2026-05-06 09:47 | 5.81869 | -75.89976 | 32750 ft | 481 kts | 323° |
| 2026-05-06 09:48 | 5.84509 | -75.92022 | 33013 ft | 481 kts | 323° |
| 2026-05-06 09:48 | 5.87155 | -75.94073 | 33280 ft | 480 kts | 323° |
| 2026-05-06 09:48 | 5.89800 | -75.96122 | 33548 ft | 480 kts | 323° |
| 2026-05-06 09:48 | 5.92443 | -75.98170 | 33832 ft | 479 kts | 323° |
| 2026-05-06 09:49 | 5.95077 | -76.00213 | 34121 ft | 477 kts | 323° |
| 2026-05-06 09:49 | 5.97682 | -76.02232 | 34359 ft | 476 kts | 323° |
| 2026-05-06 09:49 | 6.00312 | -76.04271 | 34596 ft | 476 kts | 323° |
| 2026-05-06 09:49 | 6.02927 | -76.06298 | 34831 ft | 475 kts | 323° |
| 2026-05-06 09:50 | 6.05529 | -76.08316 | 35013 ft | 475 kts | 323° |
| 2026-05-06 09:50 | 6.08146 | -76.10346 | 35030 ft | 475 kts | 323° |
| 2026-05-06 09:50 | 6.13352 | -76.14384 | 35032 ft | 473 kts | 323° |
| 2026-05-06 09:51 | 6.18569 | -76.18433 | 35028 ft | 474 kts | 323° |
| 2026-05-06 09:51 | 6.23780 | -76.22477 | 35015 ft | 474 kts | 322° |
| 2026-05-06 09:52 | 6.28993 | -76.26524 | 35016 ft | 474 kts | 323° |
| 2026-05-06 09:52 | 6.34227 | -76.30589 | 35021 ft | 476 kts | 323° |
| 2026-05-06 09:53 | 6.39461 | -76.34654 | 35016 ft | 475 kts | 323° |
| 2026-05-06 09:53 | 6.44683 | -76.38712 | 34988 ft | 475 kts | 323° |
| 2026-05-06 09:54 | 6.49922 | -76.42784 | 34987 ft | 475 kts | 323° |
| 2026-05-06 09:54 | 6.55155 | -76.46850 | 34985 ft | 475 kts | 322° |
| 2026-05-06 09:55 | 6.60379 | -76.50914 | 34952 ft | 476 kts | 322° |
| 2026-05-06 09:55 | 6.65594 | -76.54970 | 34951 ft | 473 kts | 322° |
| 2026-05-06 09:56 | 6.69909 | -76.58326 | 34954 ft | 471 kts | 322° |
| 2026-05-06 09:56 | 6.75089 | -76.62358 | 34956 ft | 471 kts | 322° |
| 2026-05-06 09:57 | 6.81107 | -76.67043 | 34927 ft | 470 kts | 322° |
| 2026-05-06 09:57 | 6.85397 | -76.70383 | 34932 ft | 470 kts | 322° |
| 2026-05-06 09:58 | 6.90571 | -76.74412 | 34930 ft | 470 kts | 322° |
| 2026-05-06 09:58 | 6.95751 | -76.78448 | 34927 ft | 471 kts | 322° |
| 2026-05-06 09:59 | 7.00913 | -76.82471 | 34917 ft | 470 kts | 322° |
| 2026-05-06 09:59 | 7.06081 | -76.86499 | 34916 ft | 470 kts | 322° |
| 2026-05-06 10:00 | 7.11266 | -76.90542 | 34921 ft | 474 kts | 322° |
| 2026-05-06 10:00 | 7.16464 | -76.94596 | 34912 ft | 474 kts | 322° |
| 2026-05-06 10:01 | 7.21622 | -76.98620 | 34911 ft | 474 kts | 322° |
| 2026-05-06 10:01 | 7.26827 | -77.02682 | 34911 ft | 474 kts | 322° |
| 2026-05-06 10:02 | 7.32042 | -77.06754 | 34911 ft | 474 kts | 322° |
| 2026-05-06 10:02 | 7.37248 | -77.10820 | 34917 ft | 474 kts | 322° |
| 2026-05-06 10:03 | 7.42455 | -77.14887 | 34915 ft | 474 kts | 323° |
| 2026-05-06 10:03 | 7.47658 | -77.18953 | 34915 ft | 473 kts | 323° |
| 2026-05-06 10:04 | 7.52862 | -77.23020 | 34925 ft | 473 kts | 323° |
| 2026-05-06 10:04 | 7.58050 | -77.27076 | 34920 ft | 470 kts | 323° |
| 2026-05-06 10:05 | 7.63212 | -77.31113 | 34923 ft | 470 kts | 323° |
| 2026-05-06 10:05 | 7.68359 | -77.35138 | 34922 ft | 470 kts | 323° |
| 2026-05-06 10:06 | 7.71097 | -77.36925 | 34907 ft | 468 kts | 335° |
| 2026-05-06 10:06 | 7.74158 | -77.37982 | 34953 ft | 465 kts | 346° |
| 2026-05-06 10:06 | 7.80332 | -77.40032 | 34968 ft | 468 kts | 341° |
| 2026-05-06 10:07 | 7.86453 | -77.42217 | 34925 ft | 466 kts | 341° |
| 2026-05-06 10:07 | 7.92562 | -77.44408 | 34931 ft | 467 kts | 341° |
| 2026-05-06 10:08 | 7.98677 | -77.46601 | 34934 ft | 467 kts | 341° |
| 2026-05-06 10:08 | 8.04798 | -77.48798 | 34936 ft | 467 kts | 341° |
| 2026-05-06 10:09 | 8.10909 | -77.50992 | 34933 ft | 467 kts | 341° |
| 2026-05-06 10:09 | 8.16993 | -77.53177 | 34930 ft | 466 kts | 341° |
| 2026-05-06 10:10 | 8.23087 | -77.55366 | 34924 ft | 465 kts | 341° |
| 2026-05-06 10:10 | 8.29185 | -77.57558 | 34925 ft | 465 kts | 341° |
| 2026-05-06 10:11 | 8.35269 | -77.59745 | 34926 ft | 465 kts | 340° |
| 2026-05-06 10:11 | 8.41376 | -77.61941 | 34929 ft | 466 kts | 340° |
| 2026-05-06 10:12 | 8.47490 | -77.64140 | 34922 ft | 466 kts | 340° |
| 2026-05-06 10:12 | 8.53600 | -77.66339 | 34920 ft | 466 kts | 340° |
| 2026-05-06 10:13 | 8.59711 | -77.68539 | 34916 ft | 466 kts | 340° |
| 2026-05-06 10:13 | 8.65828 | -77.70741 | 34916 ft | 466 kts | 340° |
| 2026-05-06 10:14 | 8.71936 | -77.72942 | 34915 ft | 466 kts | 340° |
| 2026-05-06 10:14 | 8.78043 | -77.75142 | 34913 ft | 466 kts | 340° |
| 2026-05-06 10:15 | 8.84149 | -77.77343 | 34916 ft | 466 kts | 340° |
| 2026-05-06 10:15 | 8.90258 | -77.79546 | 34912 ft | 466 kts | 340° |
| 2026-05-06 10:16 | 8.96365 | -77.81749 | 34914 ft | 466 kts | 340° |
| 2026-05-06 10:16 | 9.02463 | -77.83949 | 34917 ft | 466 kts | 340° |
| 2026-05-06 10:17 | 9.08534 | -77.86141 | 34914 ft | 466 kts | 340° |
| 2026-05-06 10:17 | 9.14639 | -77.88346 | 34914 ft | 466 kts | 340° |
| 2026-05-06 10:18 | 9.20697 | -77.90534 | 34911 ft | 466 kts | 340° |
| 2026-05-06 10:18 | 9.26732 | -77.92715 | 34912 ft | 466 kts | 340° |
| 2026-05-06 10:19 | 9.32821 | -77.94916 | 34908 ft | 463 kts | 340° |
| 2026-05-06 10:19 | 9.38900 | -77.97115 | 34910 ft | 465 kts | 340° |
| 2026-05-06 10:20 | 9.44997 | -77.99320 | 34909 ft | 465 kts | 340° |
| 2026-05-06 10:20 | 9.51076 | -78.01520 | 34903 ft | 465 kts | 340° |
| 2026-05-06 10:21 | 9.57163 | -78.03724 | 34913 ft | 465 kts | 340° |
| 2026-05-06 10:21 | 9.63260 | -78.05933 | 34910 ft | 465 kts | 340° |
| 2026-05-06 10:22 | 9.69327 | -78.08130 | 34902 ft | 462 kts | 340° |
| 2026-05-06 10:22 | 9.75374 | -78.10323 | 34908 ft | 462 kts | 340° |
| 2026-05-06 10:23 | 9.81438 | -78.12521 | 34901 ft | 463 kts | 340° |
| 2026-05-06 10:23 | 9.87488 | -78.14716 | 34895 ft | 462 kts | 340° |
| 2026-05-06 10:24 | 9.93546 | -78.16914 | 34902 ft | 462 kts | 340° |
| 2026-05-06 10:24 | 9.99597 | -78.19111 | 34905 ft | 462 kts | 339° |
| 2026-05-06 10:25 | 10.05601 | -78.21291 | 34898 ft | 461 kts | 339° |
| 2026-05-06 10:25 | 10.11639 | -78.23471 | 34895 ft | 460 kts | 342° |
| 2026-05-06 10:26 | 10.14785 | -78.24041 | 34902 ft | 460 kts | 356° |
| 2026-05-06 10:26 | 10.17992 | -78.24231 | 34888 ft | 463 kts | 354° |
| 2026-05-06 10:26 | 10.24405 | -78.24659 | 34915 ft | 463 kts | 355° |
| 2026-05-06 10:27 | 10.30834 | -78.25049 | 34906 ft | 463 kts | 356° |
| 2026-05-06 10:27 | 10.37270 | -78.25432 | 34909 ft | 462 kts | 355° |
| 2026-05-06 10:28 | 10.43677 | -78.25811 | 34903 ft | 461 kts | 355° |
| 2026-05-06 10:28 | 10.50078 | -78.26190 | 34904 ft | 461 kts | 355° |
| 2026-05-06 10:29 | 10.56483 | -78.26570 | 34900 ft | 461 kts | 355° |
| 2026-05-06 10:29 | 10.62880 | -78.26950 | 34900 ft | 461 kts | 355° |
| 2026-05-06 10:30 | 10.69279 | -78.27329 | 34900 ft | 461 kts | 355° |
| 2026-05-06 10:30 | 10.75631 | -78.27706 | 34900 ft | 460 kts | 355° |
| 2026-05-06 10:31 | 10.82021 | -78.28086 | 34897 ft | 461 kts | 355° |
| 2026-05-06 10:31 | 10.88423 | -78.28466 | 34895 ft | 461 kts | 355° |
| 2026-05-06 10:32 | 10.94829 | -78.28846 | 34899 ft | 461 kts | 355° |
| 2026-05-06 10:32 | 11.01224 | -78.29226 | 34900 ft | 460 kts | 355° |
| 2026-05-06 10:33 | 11.07624 | -78.29607 | 34907 ft | 461 kts | 355° |
| 2026-05-06 10:33 | 11.14042 | -78.29989 | 34906 ft | 463 kts | 355° |
| 2026-05-06 10:34 | 11.20473 | -78.30371 | 34903 ft | 463 kts | 355° |
| 2026-05-06 10:34 | 11.26894 | -78.30754 | 34906 ft | 463 kts | 355° |
| 2026-05-06 10:35 | 11.33329 | -78.31137 | 34909 ft | 463 kts | 355° |
| 2026-05-06 10:35 | 11.39754 | -78.31520 | 34911 ft | 462 kts | 355° |
| 2026-05-06 10:36 | 11.46176 | -78.31903 | 34913 ft | 462 kts | 355° |
| 2026-05-06 10:36 | 11.52558 | -78.32283 | 34914 ft | 462 kts | 355° |
| 2026-05-06 10:37 | 11.59017 | -78.32669 | 34911 ft | 462 kts | 355° |
| 2026-05-06 10:37 | 11.65434 | -78.33052 | 34908 ft | 462 kts | 354° |
| 2026-05-06 10:38 | 11.71817 | -78.33433 | 34912 ft | 462 kts | 355° |
| 2026-05-06 10:38 | 11.78240 | -78.33817 | 34910 ft | 462 kts | 354° |
| 2026-05-06 10:39 | 11.84648 | -78.34200 | 34912 ft | 461 kts | 354° |
| 2026-05-06 10:39 | 11.91052 | -78.34583 | 34914 ft | 462 kts | 354° |
| 2026-05-06 10:40 | 11.97458 | -78.34967 | 34913 ft | 461 kts | 355° |
| 2026-05-06 10:40 | 12.03873 | -78.35351 | 34913 ft | 461 kts | 355° |
| 2026-05-06 10:41 | 12.10286 | -78.35735 | 34918 ft | 462 kts | 355° |
| 2026-05-06 10:41 | 12.16697 | -78.36119 | 34916 ft | 462 kts | 355° |
| 2026-05-06 10:42 | 12.23103 | -78.36503 | 34913 ft | 462 kts | 355° |
| 2026-05-06 10:42 | 12.29514 | -78.36888 | 34917 ft | 462 kts | 354° |
| 2026-05-06 10:43 | 12.34848 | -78.37208 | 34916 ft | 461 kts | 355° |
| 2026-05-06 10:44 | 12.45507 | -78.37849 | 34926 ft | 461 kts | 355° |
| 2026-05-06 10:44 | 12.50828 | -78.38169 | 34924 ft | 462 kts | 355° |
| 2026-05-06 10:45 | 12.57241 | -78.38554 | 34923 ft | 462 kts | 355° |
| 2026-05-06 10:45 | 12.63656 | -78.38940 | 34924 ft | 462 kts | 355° |
| 2026-05-06 10:46 | 12.70074 | -78.39327 | 34926 ft | 462 kts | 356° |
| 2026-05-06 10:46 | 12.76493 | -78.39713 | 34925 ft | 462 kts | 355° |
| 2026-05-06 10:47 | 12.82906 | -78.40099 | 34931 ft | 462 kts | 355° |
| 2026-05-06 10:47 | 12.89323 | -78.40487 | 34933 ft | 461 kts | 356° |
| 2026-05-06 10:48 | 12.95702 | -78.40871 | 34925 ft | 459 kts | 356° |
| 2026-05-06 10:48 | 13.02076 | -78.41256 | 34928 ft | 459 kts | 355° |
| 2026-05-06 10:49 | 13.08445 | -78.41641 | 34930 ft | 459 kts | 355° |
| 2026-05-06 10:49 | 13.14823 | -78.42026 | 34929 ft | 459 kts | 356° |
| 2026-05-06 10:50 | 13.21190 | -78.42411 | 34930 ft | 459 kts | 355° |
| 2026-05-06 10:50 | 13.27559 | -78.42796 | 34933 ft | 457 kts | 355° |
| 2026-05-06 10:51 | 13.33903 | -78.43180 | 34935 ft | 457 kts | 356° |
| 2026-05-06 10:51 | 13.40241 | -78.43564 | 34937 ft | 456 kts | 355° |
| 2026-05-06 10:52 | 13.46571 | -78.43947 | 34932 ft | 456 kts | 355° |
| 2026-05-06 10:52 | 13.52906 | -78.44331 | 34937 ft | 455 kts | 356° |
| 2026-05-06 10:53 | 13.59233 | -78.44715 | 34945 ft | 455 kts | 355° |
| 2026-05-06 10:53 | 13.65533 | -78.45097 | 34939 ft | 451 kts | 356° |
| 2026-05-06 10:54 | 13.71803 | -78.45478 | 34948 ft | 452 kts | 356° |
| 2026-05-06 10:54 | 13.78092 | -78.45859 | 34948 ft | 452 kts | 355° |
| 2026-05-06 10:55 | 13.84387 | -78.46242 | 34951 ft | 452 kts | 356° |
| 2026-05-06 10:55 | 13.90673 | -78.46624 | 34953 ft | 453 kts | 356° |
| 2026-05-06 10:56 | 13.96961 | -78.47006 | 34955 ft | 451 kts | 356° |
| 2026-05-06 10:56 | 14.03177 | -78.47385 | 34955 ft | 449 kts | 356° |
| 2026-05-06 10:57 | 14.09421 | -78.47765 | 34960 ft | 449 kts | 356° |
| 2026-05-06 10:57 | 14.15676 | -78.48146 | 34961 ft | 450 kts | 356° |
| 2026-05-06 10:58 | 14.21922 | -78.48527 | 34962 ft | 449 kts | 356° |
| 2026-05-06 10:58 | 14.28168 | -78.48908 | 34965 ft | 450 kts | 356° |
| 2026-05-06 10:59 | 14.34432 | -78.49291 | 34967 ft | 450 kts | 356° |
| 2026-05-06 10:59 | 14.40656 | -78.49671 | 34967 ft | 450 kts | 356° |
| 2026-05-06 11:00 | 14.46894 | -78.50052 | 34966 ft | 450 kts | 356° |
| 2026-05-06 11:00 | 14.53152 | -78.50435 | 34967 ft | 450 kts | 356° |
| 2026-05-06 11:01 | 14.59400 | -78.50817 | 34969 ft | 450 kts | 356° |
| 2026-05-06 11:01 | 14.65638 | -78.51198 | 34971 ft | 449 kts | 357° |
| 2026-05-06 11:02 | 14.71872 | -78.51580 | 34967 ft | 449 kts | 357° |
| 2026-05-06 11:02 | 14.78111 | -78.51962 | 34968 ft | 449 kts | 357° |
| 2026-05-06 11:03 | 14.84356 | -78.52345 | 34968 ft | 449 kts | 357° |
| 2026-05-06 11:03 | 14.90591 | -78.52728 | 34968 ft | 450 kts | 357° |
| 2026-05-06 11:04 | 14.96837 | -78.53111 | 34972 ft | 450 kts | 357° |
| 2026-05-06 11:04 | 15.03055 | -78.52978 | 34982 ft | 447 kts | 6° |
| 2026-05-06 11:05 | 15.09223 | -78.52344 | 34966 ft | 448 kts | 6° |
| 2026-05-06 11:05 | 15.15422 | -78.51699 | 34967 ft | 448 kts | 6° |
| 2026-05-06 11:06 | 15.21612 | -78.51054 | 34967 ft | 448 kts | 6° |
| 2026-05-06 11:06 | 15.27819 | -78.50407 | 34969 ft | 448 kts | 6° |
| 2026-05-06 11:07 | 15.34018 | -78.49760 | 34971 ft | 448 kts | 6° |
| 2026-05-06 11:07 | 15.40218 | -78.49113 | 34972 ft | 447 kts | 6° |
| 2026-05-06 11:08 | 15.46399 | -78.48467 | 34974 ft | 447 kts | 6° |
| 2026-05-06 11:08 | 15.52595 | -78.47819 | 34977 ft | 447 kts | 6° |
| 2026-05-06 11:09 | 15.58792 | -78.47171 | 34979 ft | 447 kts | 6° |
| 2026-05-06 11:09 | 15.64984 | -78.46522 | 34980 ft | 447 kts | 6° |
| 2026-05-06 11:10 | 15.71105 | -78.45882 | 34981 ft | 447 kts | 6° |
| 2026-05-06 11:10 | 15.77342 | -78.45228 | 34982 ft | 447 kts | 6° |
| 2026-05-06 11:11 | 15.83523 | -78.44579 | 34980 ft | 447 kts | 6° |
| 2026-05-06 11:11 | 15.89678 | -78.43934 | 34985 ft | 447 kts | 6° |
| 2026-05-06 11:12 | 15.95862 | -78.43284 | 34985 ft | 447 kts | 6° |
| 2026-05-06 11:12 | 16.02050 | -78.42634 | 34986 ft | 447 kts | 6° |
| 2026-05-06 11:13 | 16.08209 | -78.41987 | 34988 ft | 447 kts | 6° |
| 2026-05-06 11:13 | 16.14400 | -78.41335 | 34988 ft | 447 kts | 6° |
| 2026-05-06 11:14 | 16.20588 | -78.40684 | 34990 ft | 447 kts | 6° |
| 2026-05-06 11:14 | 16.26788 | -78.40031 | 34990 ft | 448 kts | 6° |
| 2026-05-06 11:15 | 16.32841 | -78.39393 | 34993 ft | 448 kts | 6° |
| 2026-05-06 11:15 | 16.39062 | -78.38737 | 34997 ft | 447 kts | 6° |
| 2026-05-06 11:16 | 16.45245 | -78.38084 | 34995 ft | 447 kts | 6° |
| 2026-05-06 11:16 | 16.51392 | -78.37435 | 34996 ft | 447 kts | 6° |
| 2026-05-06 11:17 | 16.57576 | -78.36782 | 34996 ft | 447 kts | 6° |
| 2026-05-06 11:17 | 16.63770 | -78.36127 | 34999 ft | 447 kts | 6° |
| 2026-05-06 11:18 | 16.69956 | -78.35473 | 35001 ft | 447 kts | 6° |
| 2026-05-06 11:18 | 16.76135 | -78.34819 | 35002 ft | 445 kts | 6° |
| 2026-05-06 11:19 | 16.82290 | -78.34166 | 35000 ft | 445 kts | 6° |
| 2026-05-06 11:19 | 16.88459 | -78.33512 | 35004 ft | 445 kts | 6° |
| 2026-05-06 11:20 | 16.94612 | -78.32860 | 35004 ft | 445 kts | 6° |
| 2026-05-06 11:20 | 17.00780 | -78.32205 | 35005 ft | 445 kts | 6° |
| 2026-05-06 11:21 | 17.06948 | -78.31550 | 35012 ft | 445 kts | 6° |
| 2026-05-06 11:21 | 17.13082 | -78.30898 | 35008 ft | 443 kts | 6° |
| 2026-05-06 11:22 | 17.19204 | -78.30247 | 35008 ft | 443 kts | 6° |
| 2026-05-06 11:22 | 17.25335 | -78.29594 | 35010 ft | 443 kts | 6° |
| 2026-05-06 11:23 | 17.31471 | -78.28941 | 35010 ft | 443 kts | 6° |
| 2026-05-06 11:23 | 17.37602 | -78.28287 | 35009 ft | 443 kts | 6° |
| 2026-05-06 11:24 | 17.43729 | -78.27634 | 35015 ft | 441 kts | 6° |
| 2026-05-06 11:24 | 17.49815 | -78.26984 | 35013 ft | 440 kts | 6° |
| 2026-05-06 11:25 | 17.55872 | -78.26338 | 35015 ft | 440 kts | 6° |
| 2026-05-06 11:25 | 17.61976 | -78.25685 | 35015 ft | 440 kts | 6° |
| 2026-05-06 11:26 | 17.68077 | -78.25033 | 35018 ft | 440 kts | 6° |
| 2026-05-06 11:26 | 17.74172 | -78.24381 | 35018 ft | 440 kts | 6° |
| 2026-05-06 11:27 | 17.80270 | -78.23728 | 35023 ft | 440 kts | 6° |
| 2026-05-06 11:27 | 17.86366 | -78.23075 | 35023 ft | 440 kts | 6° |
| 2026-05-06 11:28 | 17.92464 | -78.22421 | 35023 ft | 440 kts | 6° |
| 2026-05-06 11:28 | 17.98515 | -78.21772 | 35023 ft | 440 kts | 6° |
| 2026-05-06 11:29 | 18.04612 | -78.21117 | 35021 ft | 440 kts | 6° |
| 2026-05-06 11:29 | 18.10702 | -78.20463 | 35026 ft | 439 kts | 6° |
| 2026-05-06 11:30 | 18.16782 | -78.19809 | 35029 ft | 439 kts | 6° |
| 2026-05-06 11:30 | 18.22847 | -78.19156 | 35032 ft | 439 kts | 6° |
| 2026-05-06 11:31 | 18.27941 | -78.18608 | 35029 ft | 439 kts | 6° |
| 2026-05-06 11:31 | 18.34014 | -78.17953 | 35033 ft | 439 kts | 6° |
| 2026-05-06 11:32 | 18.40049 | -78.17303 | 35033 ft | 439 kts | 6° |
| 2026-05-06 11:32 | 18.46109 | -78.16649 | 35027 ft | 438 kts | 5° |
| 2026-05-06 11:33 | 18.52172 | -78.15994 | 35028 ft | 438 kts | 5° |
| 2026-05-06 11:33 | 18.58234 | -78.15339 | 35029 ft | 438 kts | 5° |
| 2026-05-06 11:34 | 18.64292 | -78.14684 | 35029 ft | 438 kts | 5° |
| 2026-05-06 11:34 | 18.70357 | -78.14028 | 35031 ft | 438 kts | 5° |
| 2026-05-06 11:35 | 18.76415 | -78.13372 | 35038 ft | 438 kts | 5° |
| 2026-05-06 11:35 | 18.82476 | -78.12716 | 35034 ft | 437 kts | 5° |
| 2026-05-06 11:36 | 18.88538 | -78.12058 | 35034 ft | 437 kts | 5° |
| 2026-05-06 11:36 | 18.94551 | -78.11406 | 35034 ft | 437 kts | 5° |
| 2026-05-06 11:37 | 19.00648 | -78.10744 | 35037 ft | 438 kts | 5° |
| 2026-05-06 11:37 | 19.06659 | -78.10091 | 35036 ft | 437 kts | 5° |
| 2026-05-06 11:38 | 19.12728 | -78.09430 | 35039 ft | 439 kts | 5° |
| 2026-05-06 11:38 | 19.18789 | -78.08771 | 35040 ft | 439 kts | 5° |
| 2026-05-06 11:39 | 19.24860 | -78.08109 | 35040 ft | 439 kts | 5° |
| 2026-05-06 11:39 | 19.30938 | -78.07447 | 35043 ft | 439 kts | 5° |
| 2026-05-06 11:40 | 19.37013 | -78.06785 | 35041 ft | 439 kts | 5° |
| 2026-05-06 11:40 | 19.43078 | -78.06123 | 35047 ft | 439 kts | 5° |
| 2026-05-06 11:41 | 19.49163 | -78.05458 | 35041 ft | 439 kts | 5° |
| 2026-05-06 11:41 | 19.55241 | -78.04794 | 35042 ft | 439 kts | 5° |
| 2026-05-06 11:42 | 19.61293 | -78.04132 | 35043 ft | 439 kts | 5° |
| 2026-05-06 11:42 | 19.67376 | -78.03466 | 35048 ft | 439 kts | 5° |
| 2026-05-06 11:43 | 19.73452 | -78.02800 | 35052 ft | 439 kts | 4° |
| 2026-05-06 11:43 | 19.79529 | -78.02138 | 35045 ft | 439 kts | 3° |
| 2026-05-06 11:44 | 19.85556 | -78.02790 | 35043 ft | 438 kts | 351° |
| 2026-05-06 11:44 | 19.88570 | -78.03293 | 35034 ft | 437 kts | 351° |
| 2026-05-06 11:44 | 19.94577 | -78.04348 | 35050 ft | 438 kts | 350° |
| 2026-05-06 11:45 | 20.00588 | -78.05430 | 35051 ft | 438 kts | 350° |
| 2026-05-06 11:45 | 20.06597 | -78.06515 | 35055 ft | 438 kts | 350° |
| 2026-05-06 11:46 | 20.12608 | -78.07601 | 35055 ft | 438 kts | 350° |
| 2026-05-06 11:46 | 20.18608 | -78.08686 | 35053 ft | 438 kts | 350° |
| 2026-05-06 11:47 | 20.24621 | -78.09774 | 35050 ft | 438 kts | 350° |
| 2026-05-06 11:47 | 20.30631 | -78.10862 | 35051 ft | 438 kts | 350° |
| 2026-05-06 11:48 | 20.36642 | -78.11952 | 35054 ft | 438 kts | 350° |
| 2026-05-06 11:48 | 20.42610 | -78.13034 | 35059 ft | 438 kts | 349° |
| 2026-05-06 11:49 | 20.48610 | -78.14124 | 35056 ft | 437 kts | 349° |
| 2026-05-06 11:49 | 20.54610 | -78.15214 | 35057 ft | 437 kts | 349° |
| 2026-05-06 11:50 | 20.60615 | -78.16305 | 35056 ft | 437 kts | 349° |
| 2026-05-06 11:50 | 20.66609 | -78.17396 | 35057 ft | 437 kts | 349° |
| 2026-05-06 11:51 | 20.72593 | -78.18486 | 35056 ft | 437 kts | 349° |
| 2026-05-06 11:51 | 20.78431 | -78.19550 | 35057 ft | 434 kts | 349° |
| 2026-05-06 11:52 | 20.84223 | -78.20606 | 35060 ft | 435 kts | 349° |
| 2026-05-06 11:52 | 20.90182 | -78.21694 | 35059 ft | 435 kts | 349° |
| 2026-05-06 11:53 | 20.96133 | -78.22781 | 35061 ft | 435 kts | 349° |
| 2026-05-06 11:53 | 21.02095 | -78.23871 | 35064 ft | 435 kts | 349° |
| 2026-05-06 11:54 | 21.08054 | -78.24961 | 35064 ft | 434 kts | 349° |
| 2026-05-06 11:54 | 21.14013 | -78.26054 | 35060 ft | 434 kts | 349° |
| 2026-05-06 11:55 | 21.19965 | -78.27146 | 35057 ft | 434 kts | 349° |
| 2026-05-06 11:55 | 21.25919 | -78.28239 | 35059 ft | 435 kts | 349° |
| 2026-05-06 11:56 | 21.31886 | -78.29336 | 35059 ft | 435 kts | 349° |
| 2026-05-06 11:56 | 21.37846 | -78.30432 | 35062 ft | 435 kts | 349° |
| 2026-05-06 11:57 | 21.43789 | -78.31526 | 35064 ft | 433 kts | 349° |
| 2026-05-06 11:57 | 21.49678 | -78.32611 | 35063 ft | 433 kts | 349° |
| 2026-05-06 11:58 | 21.55653 | -78.33712 | 35068 ft | 432 kts | 349° |
| 2026-05-06 11:58 | 21.61548 | -78.34800 | 35067 ft | 433 kts | 349° |
| 2026-05-06 11:59 | 21.67484 | -78.35896 | 35068 ft | 433 kts | 349° |
| 2026-05-06 11:59 | 21.73417 | -78.36993 | 35073 ft | 432 kts | 349° |
| 2026-05-06 12:00 | 21.79354 | -78.38091 | 35069 ft | 432 kts | 349° |
| 2026-05-06 12:00 | 21.85277 | -78.39188 | 35066 ft | 432 kts | 349° |
| 2026-05-06 12:01 | 21.91171 | -78.40280 | 35072 ft | 433 kts | 349° |
| 2026-05-06 12:01 | 21.97101 | -78.41380 | 35072 ft | 433 kts | 349° |
| 2026-05-06 12:02 | 22.03028 | -78.42480 | 35068 ft | 432 kts | 349° |
| 2026-05-06 12:02 | 22.08956 | -78.43581 | 35067 ft | 431 kts | 349° |
| 2026-05-06 12:03 | 22.14783 | -78.44665 | 35062 ft | 430 kts | 349° |
| 2026-05-06 12:03 | 22.20683 | -78.45762 | 35074 ft | 430 kts | 349° |
| 2026-05-06 12:04 | 22.26574 | -78.46860 | 35077 ft | 431 kts | 349° |
| 2026-05-06 12:04 | 22.32481 | -78.47961 | 35068 ft | 430 kts | 349° |
| 2026-05-06 12:05 | 22.38348 | -78.49055 | 35080 ft | 430 kts | 349° |
| 2026-05-06 12:05 | 22.44216 | -78.50151 | 35069 ft | 428 kts | 349° |
| 2026-05-06 12:06 | 22.50097 | -78.51249 | 35071 ft | 428 kts | 349° |
| 2026-05-06 12:06 | 22.55969 | -78.52347 | 35069 ft | 428 kts | 349° |
| 2026-05-06 12:07 | 22.61852 | -78.53447 | 35064 ft | 428 kts | 349° |
| 2026-05-06 12:07 | 22.67720 | -78.54546 | 35065 ft | 428 kts | 349° |
| 2026-05-06 12:08 | 22.73594 | -78.55646 | 35066 ft | 428 kts | 349° |
| 2026-05-06 12:08 | 22.79461 | -78.56747 | 35068 ft | 428 kts | 349° |
| 2026-05-06 12:09 | 22.85287 | -78.57841 | 35070 ft | 428 kts | 349° |
| 2026-05-06 12:09 | 22.91158 | -78.58945 | 35070 ft | 428 kts | 349° |
| 2026-05-06 12:10 | 22.97021 | -78.60048 | 35068 ft | 428 kts | 349° |
| 2026-05-06 12:10 | 23.02888 | -78.61153 | 35086 ft | 427 kts | 349° |
| 2026-05-06 12:11 | 23.08742 | -78.62256 | 35069 ft | 426 kts | 349° |
| 2026-05-06 12:11 | 23.14584 | -78.63357 | 35069 ft | 427 kts | 349° |
| 2026-05-06 12:12 | 23.20426 | -78.64461 | 35073 ft | 426 kts | 349° |
| 2026-05-06 12:12 | 23.26280 | -78.65567 | 35073 ft | 426 kts | 349° |
| 2026-05-06 12:13 | 23.32092 | -78.66666 | 35071 ft | 426 kts | 349° |
| 2026-05-06 12:13 | 23.37932 | -78.67772 | 35072 ft | 425 kts | 348° |
| 2026-05-06 12:14 | 23.43742 | -78.68873 | 35067 ft | 425 kts | 348° |
| 2026-05-06 12:14 | 23.49577 | -78.69979 | 35067 ft | 425 kts | 348° |
| 2026-05-06 12:15 | 23.55401 | -78.71085 | 35066 ft | 425 kts | 348° |
| 2026-05-06 12:15 | 23.61220 | -78.72190 | 35068 ft | 425 kts | 348° |
| 2026-05-06 12:16 | 23.67042 | -78.73298 | 35075 ft | 425 kts | 348° |
| 2026-05-06 12:16 | 23.72854 | -78.74403 | 35066 ft | 424 kts | 348° |
| 2026-05-06 12:17 | 23.78662 | -78.75510 | 35064 ft | 424 kts | 348° |
| 2026-05-06 12:17 | 23.84476 | -78.76618 | 35063 ft | 424 kts | 348° |
| 2026-05-06 12:18 | 23.90282 | -78.77726 | 35071 ft | 424 kts | 348° |